Terminal Aerodrome Forecast
Issued by NWS

Home | Current Version | Previous Version | Graphics & Text | Print | Product List | Glossary On
Versions: 1 2 3 4 5 6 7 8 9 10 11 12 13 14 15 16
643
FTUS43 KBIS 032330
TAFDIK
TAF
KDIK 032330Z 0400/0424 26013KT P6SM BKN090
     FM040300 30009KT P6SM SCT020 BKN070
     FM041000 31005KT P6SM BKN050
     FM041800 22008KT P6SM BKN130=

USA.gov is the U.S. government's official web portal to all federal, state and local government web resources and services.